Cora, WY (82925)

6:22 AM MDT on September 17, 2014 (GMT -0600)
RAWS HALF MOON WY US | Change Station
CLOSE
Current Station
Personal Weather Station
Location: Pinedale, WY
Elevation: 8529 ft
Nearby Weather Stations
Active Advisory: Special Statement

Elev 8529 ft 42.91 °N, 109.75 °W | Updated 56 minutes ago

Partly Cloudy
Partly Cloudy
40 °F
Feels Like 40 °F
N
1
Wind Variable Wind from SSE
Gusts 3.0 mph

Today
High -- | Low -- °F
--% Chance of Precip.
Yesterday
High -- | Low -- °F
Precip. -- in
7:01 AM 7:26 PM
Last Quarter, 36% visible
Pressure 30.21 in
Visibility 10.0 miles
Clouds Clear
Windchill 40 °F
Dew Point 32 °F
Humidity 73%
Rainfall 0.00 in
Snow Depth 0 in , 0 in , 0 in
UV 0 out of 12
Pollen 5.90 out of 12
Air Quality Not available.
Flu Activity Not available.
METAR KPNA 171215Z AUTO 26006KT 10SM CLR 02/01 A3021 RMK AO2 LTG DSNT W AND NW

More Conditions Fewer Conditions

Pressure 30.21 in
Visibility 10.0 miles
Clouds Clear
Windchill 40 °F
Dew Point 32 °F
Humidity 73%
Rainfall 0.00 in
Snow Depth 0 in , 0 in , 0 in
UV 0 out of 12
Pollen 5.90 out of 12
Air Quality Not available.
Flu Activity Not available.
METAR KPNA 171215Z AUTO 26006KT 10SM CLR 02/01 A3021 RMK AO2 LTG DSNT W AND NW

More Conditions Fewer Conditions

10-Day Weather Forecast

Almanac

Astronomy

Sep. 17, 2014 Rise Set
Actual Time 7:01 AM MDT 7:26 PM MDT
Civil Twilight 6:33 AM MDT 7:54 PM MDT
Nautical Twilight 5:59 AM MDT 8:28 PM MDT
Astronomical Twilight 5:25 AM MDT 9:02 PM MDT
Moon 12:58 AM MDT 3:44 PM MDT
Length of Visible Light 13h 21m
Length of Day
12h 24m
Tomorrow will be 2m 55s shorter.
Last Quarter, 36% of the Moon is Illuminated
Today
Last Quarter
Sep 24
New
Oct 1
First Quarter
Oct 8
Full
Oct 15
Last Quarter

Today's Extremes

State Highs State Lows

Community

WunderPhotos

Upload Photos

1,754,011 photos uploaded!

Nearby

Snow Depth

Station Depth Elevation
Reno Hill 0 in 8500 ft
Loomis Park 0 in 8240 ft
Webber Springs 0 in 9250 ft
East Rim Divide 0 in 7930 ft
Blind Bull Summit 2 in 8900 ft

Earthquake Activity

City Distance Mag. Time & Date
No recent earthquake activity has been reported nearby.
Minimum magnitude displayed is 2.5.

Coastal Water Temperatures

Place Temperature
No Stations Reporting

Nearby Weather Stations